createdAt,value
2023-04-12T00:00:04.373Z,1.23
2023-04-12T00:02:35.900Z,1.83
2023-04-12T00:05:09.772Z,1.33
2023-04-12T00:07:39.537Z,1.90
2023-04-12T00:10:09.199Z,1.50
2023-04-12T00:12:38.077Z,1.55
2023-04-12T00:15:10.036Z,1.70
2023-04-12T00:17:37.178Z,1.73
2023-04-12T00:20:12.130Z,1.60
2023-04-12T00:22:42.734Z,1.40
2023-04-12T00:25:09.785Z,1.52
2023-04-12T00:27:37.029Z,2.17
2023-04-12T00:30:04.241Z,1.25
2023-04-12T00:32:33.214Z,1.30
2023-04-12T00:35:04.913Z,1.70
2023-04-12T00:37:36.278Z,1.23
2023-04-12T00:40:03.415Z,1.30
2023-04-12T00:42:30.246Z,1.13
2023-04-12T00:44:57.034Z,1.20
2023-04-12T00:47:23.821Z,1.15
2023-04-12T00:49:53.079Z,1.10
2023-04-12T00:52:22.439Z,1.40
2023-04-12T00:54:53.723Z,1.30
2023-04-12T00:57:25.534Z,0.98
2023-04-12T00:59:55.146Z,1.40
2023-04-12T01:02:22.104Z,1.05
2023-04-12T01:04:51.467Z,1.25
2023-04-12T01:07:54.120Z,1.05
2023-04-12T01:10:37.689Z,1.25
2023-04-12T01:13:35.283Z,1.08
2023-04-12T01:16:25.251Z,1.63
2023-04-12T01:18:58.140Z,1.50
2023-04-12T01:21:36.255Z,1.25
2023-04-12T01:24:16.151Z,1.00
2023-04-12T01:26:45.037Z,1.30
2023-04-12T01:29:15.483Z,1.38
2023-04-12T01:31:58.296Z,1.02
2023-04-12T01:34:28.603Z,1.20
2023-04-12T01:36:59.556Z,1.30
2023-04-12T01:39:27.713Z,1.42
2023-04-12T01:41:54.448Z,1.15
2023-04-12T01:44:23.832Z,1.30
2023-04-12T01:46:54.276Z,1.30
2023-04-12T01:49:25.145Z,1.30
2023-04-12T01:51:58.031Z,1.23
2023-04-12T01:54:30.674Z,1.35
2023-04-12T01:57:01.544Z,1.50
2023-04-12T01:59:39.626Z,1.40
2023-04-12T02:02:12.059Z,1.25
2023-04-12T02:04:39.436Z,1.27
2023-04-12T02:07:06.550Z,1.65
2023-04-12T02:09:38.894Z,1.50
2023-04-12T02:12:09.912Z,1.40
2023-04-12T02:14:40.287Z,1.17
2023-04-12T02:17:08.835Z,1.58
2023-04-12T02:19:36.068Z,1.38
2023-04-12T02:22:04.658Z,1.35
2023-04-12T02:24:34.645Z,1.55
2023-04-12T02:27:01.612Z,2.05
2023-04-12T02:29:28.392Z,1.30
2023-04-12T02:31:57.488Z,1.08
2023-04-12T02:34:24.280Z,1.50
2023-04-12T02:36:53.490Z,1.42
2023-04-12T02:39:22.372Z,1.30
2023-04-12T02:41:49.342Z,1.40
2023-04-12T02:44:18.325Z,1.23
2023-04-12T02:46:45.125Z,1.58
2023-04-12T02:49:12.186Z,1.30
2023-04-12T02:51:42.732Z,1.25
2023-04-12T02:54:10.888Z,1.20
2023-04-12T02:56:39.156Z,1.30
2023-04-12T02:59:07.096Z,1.25
2023-04-12T03:01:34.144Z,1.02
2023-04-12T03:04:03.201Z,1.17
2023-04-12T03:06:30.336Z,1.23
2023-04-12T03:08:58.253Z,1.15
2023-04-12T03:11:25.097Z,1.23
2023-04-12T03:13:52.776Z,1.05
2023-04-12T03:16:25.807Z,1.30
2023-04-12T03:18:56.997Z,1.35
2023-04-12T03:21:23.879Z,0.93
2023-04-12T03:23:51.404Z,1.20
2023-04-12T03:26:20.662Z,1.00
2023-04-12T03:28:52.639Z,1.02
2023-04-12T03:31:21.655Z,1.25
2023-04-12T03:33:51.666Z,0.80
2023-04-12T03:36:18.591Z,1.13
2023-04-12T03:38:45.841Z,0.88
2023-04-12T03:41:12.857Z,1.08
2023-04-12T03:43:40.745Z,1.08
2023-04-12T03:46:10.025Z,1.00
2023-04-12T03:48:37.987Z,1.17
2023-04-12T03:51:08.346Z,1.33
2023-04-12T03:53:35.309Z,1.10
2023-04-12T03:56:04.999Z,0.90
2023-04-12T03:58:34.548Z,1.20
2023-04-12T04:01:06.349Z,1.10
2023-04-12T04:03:35.278Z,1.10
2023-04-12T04:06:05.001Z,1.13
2023-04-12T04:08:33.443Z,0.90
2023-04-12T04:11:01.314Z,0.88
2023-04-12T04:13:28.477Z,1.02
2023-04-12T04:16:06.734Z,1.02
2023-04-12T04:18:36.312Z,1.10
2023-04-12T04:21:10.128Z,1.00
2023-04-12T04:23:54.100Z,1.00
2023-04-12T04:26:33.737Z,1.15
2023-04-12T04:29:16.782Z,0.85
2023-04-12T04:31:46.357Z,0.90
2023-04-12T04:34:17.693Z,0.88
2023-04-12T04:36:52.543Z,0.95
2023-04-12T04:39:19.215Z,0.73
2023-04-12T04:41:46.793Z,1.00
2023-04-12T04:44:14.493Z,1.10
2023-04-12T04:46:41.272Z,0.90
2023-04-12T04:49:07.925Z,0.82
2023-04-12T04:51:34.670Z,1.02
2023-04-12T04:54:02.334Z,1.20
2023-04-12T04:56:29.028Z,1.13
2023-04-12T04:58:57.234Z,1.10
2023-04-12T05:01:28.501Z,0.95
2023-04-12T05:03:55.950Z,0.90
2023-04-12T05:06:23.472Z,0.98
2023-04-12T05:08:50.265Z,1.00
2023-04-12T05:11:17.093Z,1.00
2023-04-12T05:13:45.966Z,1.00
2023-04-12T05:16:12.837Z,1.20
2023-04-12T05:18:39.498Z,1.33
2023-04-12T05:21:06.719Z,0.98
2023-04-12T05:23:37.880Z,1.15
2023-04-12T05:26:04.929Z,1.00
2023-04-12T05:28:31.947Z,1.17
2023-04-12T05:30:58.835Z,1.00
2023-04-12T05:33:25.921Z,1.27
2023-04-12T05:35:52.736Z,1.10
2023-04-12T05:38:19.740Z,1.30
2023-04-12T05:40:50.239Z,1.30
2023-04-12T05:43:17.843Z,1.23
2023-04-12T05:45:44.714Z,1.35
2023-04-12T05:48:14.617Z,1.00
2023-04-12T05:50:51.154Z,1.25
2023-04-12T05:53:18.428Z,1.27
2023-04-12T05:55:47.949Z,1.20
2023-04-12T05:58:14.782Z,1.17
2023-04-12T06:00:46.852Z,3.25
2023-04-12T06:03:13.853Z,2.05
2023-04-12T06:05:40.773Z,3.05
2023-04-12T06:08:08.567Z,2.97
2023-04-12T06:10:38.723Z,2.38
2023-04-12T06:13:09.048Z,3.45
2023-04-12T06:15:46.198Z,2.90
2023-04-12T06:18:20.093Z,2.05
2023-04-12T06:20:46.901Z,2.60
2023-04-12T06:23:49.632Z,1.88
2023-04-12T06:26:40.346Z,2.08
2023-04-12T06:29:07.290Z,1.85
2023-04-12T06:31:37.477Z,1.85
2023-04-12T06:34:16.750Z,1.40
2023-04-12T06:36:47.946Z,2.88
2023-04-12T06:39:21.122Z,2.15
2023-04-12T06:41:49.367Z,1.92
2023-04-12T06:44:22.224Z,1.83
2023-04-12T06:46:53.351Z,1.85
2023-04-12T06:49:42.895Z,2.03
2023-04-12T06:52:14.297Z,1.98
2023-04-12T06:54:55.116Z,1.90
2023-04-12T06:57:54.274Z,2.25
2023-04-12T07:00:44.830Z,1.77
2023-04-12T07:03:11.946Z,2.10
2023-04-12T07:05:39.543Z,1.98
2023-04-12T07:08:09.546Z,1.50
2023-04-12T07:10:38.739Z,1.70
2023-04-12T07:13:08.258Z,1.52
2023-04-12T07:15:37.411Z,1.60
2023-04-12T07:18:04.395Z,1.90
2023-04-12T07:20:31.217Z,1.90
2023-04-12T07:22:58.423Z,2.30
2023-04-12T07:25:27.601Z,1.90
2023-04-12T07:27:54.882Z,1.80
2023-04-12T07:30:22.280Z,2.00
2023-04-12T07:32:49.617Z,2.10
2023-04-12T07:35:21.136Z,2.88
2023-04-12T07:37:48.093Z,2.20
2023-04-12T07:40:17.486Z,2.60
2023-04-12T07:42:44.584Z,2.17
2023-04-12T07:45:11.819Z,2.05
2023-04-12T07:47:51.714Z,2.72
2023-04-12T07:53:43.403Z,2.35
2023-04-12T07:56:29.085Z,2.20
2023-04-12T07:59:22.746Z,2.25
2023-04-12T08:02:49.319Z,2.20
2023-04-12T08:10:54.747Z,2.20
2023-04-12T08:14:09.935Z,1.77
2023-04-12T08:16:37.044Z,1.88
2023-04-12T08:19:04.446Z,2.22
2023-04-12T08:21:31.309Z,1.90
2023-04-12T08:23:58.554Z,1.85
2023-04-12T08:26:27.012Z,2.10
2023-04-12T08:28:54.429Z,2.05
2023-04-12T08:31:22.835Z,2.15
2023-04-12T08:33:49.849Z,2.17
2023-04-12T08:36:16.951Z,1.92
2023-04-12T08:38:46.212Z,2.38
2023-04-12T08:41:14.178Z,2.10
2023-04-12T08:43:45.733Z,2.17
2023-04-12T08:46:16.004Z,2.17
2023-04-12T08:48:46.652Z,1.90
2023-04-12T08:51:16.574Z,1.98
2023-04-12T08:53:46.356Z,2.05
2023-04-12T08:56:14.091Z,2.38
2023-04-12T08:58:45.898Z,2.08
2023-04-12T09:01:14.914Z,3.17
2023-04-12T09:03:44.009Z,2.70
2023-04-12T09:06:14.212Z,2.25
2023-04-12T09:08:58.275Z,2.22
2023-04-12T09:11:27.281Z,2.40
2023-04-12T09:13:55.771Z,3.00
2023-04-12T09:16:36.756Z,2.28
2023-04-12T09:19:06.758Z,2.58
2023-04-12T09:21:37.086Z,2.80
2023-04-12T09:24:11.660Z,2.45
2023-04-12T09:26:42.515Z,2.38
2023-04-12T09:29:24.752Z,2.65
2023-04-12T09:32:04.718Z,3.00
2023-04-12T09:34:32.735Z,2.72
2023-04-12T09:36:59.635Z,2.78
2023-04-12T09:39:35.665Z,2.65
2023-04-12T09:42:14.834Z,2.78
2023-04-12T09:44:45.141Z,2.38
2023-04-12T09:47:11.760Z,2.45
2023-04-12T09:49:45.005Z,3.72
2023-04-12T09:52:13.883Z,3.08
2023-04-12T09:54:46.058Z,3.05
2023-04-12T09:57:15.959Z,2.58
2023-04-12T09:59:45.812Z,2.70
2023-04-12T10:02:23.151Z,2.75
2023-04-12T10:04:53.935Z,3.05
2023-04-12T10:07:22.842Z,3.33
2023-04-12T10:09:52.351Z,3.20
2023-04-12T10:12:19.598Z,3.05
2023-04-12T10:14:48.030Z,3.30
2023-04-12T10:17:15.302Z,2.55
2023-04-12T10:19:45.149Z,2.97
2023-04-12T10:22:13.892Z,3.03
2023-04-12T10:24:41.140Z,2.50
2023-04-12T10:27:09.252Z,3.15
2023-04-12T10:29:39.197Z,2.95
2023-04-12T10:33:43.150Z,3.35
2023-04-12T10:35:17.687Z,3.20
2023-04-12T10:38:07.413Z,2.78
2023-04-12T10:41:23.093Z,2.53
2023-04-12T10:43:52.119Z,2.30
2023-04-12T10:46:41.631Z,2.58
2023-04-12T10:49:28.668Z,2.58
2023-04-12T10:52:07.566Z,2.42
2023-04-12T10:54:38.871Z,1.92
2023-04-12T10:57:34.542Z,2.25
2023-04-12T11:00:07.521Z,2.38
2023-04-12T11:02:40.709Z,1.95
2023-04-12T11:05:11.515Z,2.03
2023-04-12T11:07:46.925Z,2.10
2023-04-12T11:10:23.532Z,2.10
2023-04-12T11:12:57.567Z,2.05
2023-04-12T11:15:31.290Z,2.72
2023-04-12T11:18:01.407Z,2.35
2023-04-12T11:20:29.501Z,2.03
2023-04-12T11:22:56.919Z,1.95
2023-04-12T11:25:24.286Z,2.08
2023-04-12T11:27:55.921Z,2.15
2023-04-12T11:30:23.843Z,1.60
2023-04-12T11:33:10.644Z,2.13
2023-04-12T11:35:48.832Z,2.35
2023-04-12T11:38:38.028Z,2.15
2023-04-12T11:41:07.441Z,1.73
2023-04-12T11:43:40.384Z,1.63
2023-04-12T11:46:10.203Z,1.67
2023-04-12T11:48:40.171Z,1.75
2023-04-12T11:51:33.852Z,2.03
2023-04-12T11:54:12.629Z,2.00
2023-04-12T11:56:42.921Z,1.60
2023-04-12T11:59:11.189Z,2.00
2023-04-12T12:01:44.179Z,1.60
2023-04-12T12:04:13.053Z,1.55
2023-04-12T12:06:41.279Z,2.17
2023-04-12T12:09:13.427Z,1.92
2023-04-12T12:12:12.377Z,1.55
2023-04-12T12:14:44.902Z,1.35
2023-04-12T12:17:24.223Z,1.02
2023-04-12T12:19:51.310Z,1.20
2023-04-12T12:22:20.351Z,0.80
2023-04-12T12:25:00.245Z,0.95
2023-04-12T12:27:36.238Z,1.23
2023-04-12T12:30:05.373Z,1.60
2023-04-12T12:32:37.595Z,1.00
2023-04-12T12:35:17.185Z,1.30
2023-04-12T12:38:00.442Z,1.10
2023-04-12T12:40:40.892Z,1.60
2023-04-12T12:43:53.292Z,1.63
2023-04-12T12:46:21.567Z,1.70
2023-04-12T12:48:48.984Z,1.50
2023-04-12T12:51:20.945Z,1.65
2023-04-12T12:53:48.554Z,1.52
2023-04-12T12:56:20.930Z,1.92
2023-04-12T12:58:47.897Z,1.30
2023-04-12T13:01:14.761Z,1.52
2023-04-12T13:03:42.031Z,1.65
2023-04-12T13:06:09.150Z,1.33
2023-04-12T13:08:37.237Z,1.80
2023-04-12T13:11:04.313Z,1.80
2023-04-12T13:13:30.986Z,1.17
2023-04-12T13:15:57.900Z,1.25
2023-04-12T13:18:24.770Z,1.70
2023-04-12T13:20:51.569Z,1.15
2023-04-12T13:23:26.317Z,1.23
2023-04-12T13:26:19.425Z,1.05
2023-04-12T13:28:46.337Z,1.30
2023-04-12T13:31:36.563Z,1.35
2023-04-12T13:34:09.689Z,1.10
2023-04-12T13:36:36.949Z,1.15
2023-04-12T13:39:03.981Z,1.50
2023-04-12T13:41:34.311Z,1.25
2023-04-12T13:44:04.708Z,1.73
2023-04-12T13:46:32.865Z,1.23
2023-04-12T13:49:02.130Z,1.65
2023-04-12T13:51:32.828Z,1.48
2023-04-12T13:54:01.984Z,1.00
2023-04-12T13:56:31.040Z,1.05
2023-04-12T13:58:59.607Z,0.88
2023-04-12T14:01:28.689Z,1.20
2023-04-12T14:03:55.913Z,1.00
2023-04-12T14:06:22.773Z,0.88
2023-04-12T14:08:52.970Z,0.98
2023-04-12T14:11:19.982Z,1.00
2023-04-12T14:13:46.750Z,1.42
2023-04-12T14:16:13.484Z,2.20
2023-04-12T14:18:42.586Z,1.10
2023-04-12T14:21:09.866Z,0.82
2023-04-12T14:23:37.133Z,0.88
2023-04-12T14:26:06.094Z,1.00
2023-04-12T14:28:38.129Z,0.98
2023-04-12T14:31:06.576Z,0.90
2023-04-12T14:33:33.776Z,0.80
2023-04-12T14:36:13.812Z,1.05
2023-04-12T14:38:44.127Z,0.38
2023-04-12T14:41:14.224Z,0.30
2023-04-12T14:43:41.020Z,0.45
2023-04-12T14:46:11.834Z,0.30
2023-04-12T14:48:38.722Z,0.38
2023-04-12T14:51:05.582Z,0.40
2023-04-12T14:53:32.184Z,0.40
2023-04-12T14:56:00.631Z,0.40
2023-04-12T14:58:29.401Z,0.40
2023-04-12T15:01:00.372Z,1.23
2023-04-12T15:03:30.006Z,1.10
2023-04-12T15:05:58.348Z,1.20
2023-04-12T15:08:24.889Z,1.40
2023-04-12T15:10:51.950Z,1.17
2023-04-12T15:13:20.409Z,0.65
2023-04-12T15:15:48.105Z,0.80
2023-04-12T15:18:15.447Z,0.95
2023-04-12T15:20:42.805Z,0.90
2023-04-12T15:23:12.524Z,0.80
2023-04-12T15:25:44.069Z,0.60
2023-04-12T15:28:10.633Z,0.60
2023-04-12T15:30:40.005Z,0.40
2023-04-12T15:33:06.941Z,0.63
2023-04-12T15:35:33.650Z,0.90
2023-04-12T15:38:00.401Z,1.30
2023-04-12T15:40:27.205Z,1.15
2023-04-12T15:42:53.879Z,1.17
2023-04-12T15:45:20.508Z,0.77
2023-04-12T15:47:49.337Z,1.30
2023-04-12T15:50:16.134Z,0.80
2023-04-12T15:52:44.279Z,0.75
2023-04-12T15:55:11.710Z,1.00
2023-04-12T15:57:38.498Z,0.70
2023-04-12T16:00:13.828Z,1.20
2023-04-12T16:02:53.699Z,0.75
2023-04-12T16:05:21.319Z,0.80
2023-04-12T16:07:51.082Z,0.70
2023-04-12T16:10:22.478Z,0.82
2023-04-12T16:12:50.375Z,0.90
2023-04-12T16:15:19.450Z,0.77
2023-04-12T16:17:49.735Z,0.90
2023-04-12T16:20:22.823Z,1.17
2023-04-12T16:22:56.790Z,0.95
2023-04-12T16:25:24.668Z,0.93
2023-04-12T16:27:53.108Z,1.00
2023-04-12T16:30:20.104Z,1.38
2023-04-12T16:32:49.597Z,1.63
2023-04-12T16:35:18.668Z,1.30
2023-04-12T16:37:50.655Z,1.40
2023-04-12T16:40:18.082Z,1.30
2023-04-12T16:42:45.152Z,1.30
2023-04-12T16:45:18.707Z,1.60
2023-04-12T16:47:48.299Z,1.50
2023-04-12T16:50:15.911Z,1.63
2023-04-12T16:52:44.896Z,1.60
2023-04-12T16:55:13.578Z,1.80
2023-04-12T16:57:43.027Z,1.40
2023-04-12T17:00:21.367Z,1.95
2023-04-12T17:02:57.095Z,1.73
2023-04-12T17:05:26.038Z,1.80
2023-04-12T17:07:55.508Z,1.90
2023-04-12T17:10:24.708Z,1.60
2023-04-12T17:12:53.985Z,1.90
2023-04-12T17:15:22.010Z,1.73
2023-04-12T17:17:50.917Z,1.95
2023-04-12T17:20:22.535Z,1.80
2023-04-12T17:22:50.092Z,1.42
2023-04-12T17:25:21.184Z,2.15
2023-04-12T17:27:54.695Z,1.67
2023-04-12T17:30:22.295Z,1.40
2023-04-12T17:32:53.021Z,1.75
2023-04-12T17:35:21.037Z,1.70
2023-04-12T17:37:49.532Z,1.40
2023-04-12T17:40:17.576Z,1.70
2023-04-12T17:42:45.113Z,1.70
2023-04-12T17:45:15.068Z,2.03
2023-04-12T17:47:44.106Z,1.58
2023-04-12T17:50:14.210Z,2.05
2023-04-12T17:52:43.411Z,1.83
2023-04-12T17:55:12.866Z,2.15
2023-04-12T17:57:40.892Z,1.90
2023-04-12T18:00:11.756Z,2.28
2023-04-12T18:02:39.460Z,1.60
2023-04-12T18:05:09.123Z,1.90
2023-04-12T18:07:36.035Z,2.22
2023-04-12T18:10:03.338Z,2.13
2023-04-12T18:12:35.279Z,2.40
2023-04-12T18:15:03.549Z,1.95
2023-04-12T18:17:32.491Z,2.22
2023-04-12T18:20:02.728Z,2.45
2023-04-12T18:22:29.814Z,2.50
2023-04-12T18:24:56.627Z,2.30
2023-04-12T18:27:23.196Z,2.20
2023-04-12T18:29:49.776Z,2.10
2023-04-12T18:32:18.786Z,1.80
2023-04-12T18:34:45.672Z,2.10
2023-04-12T18:37:14.662Z,1.98
2023-04-12T18:39:42.779Z,1.80
2023-04-12T18:42:12.449Z,1.95
2023-04-12T18:44:42.179Z,2.20
2023-04-12T18:47:08.965Z,2.30
2023-04-12T18:49:35.645Z,2.22
2023-04-12T18:52:02.216Z,2.50
2023-04-12T18:54:29.085Z,2.65
2023-04-12T18:56:57.914Z,2.40
2023-04-12T18:59:27.468Z,2.63
2023-04-12T19:01:54.060Z,2.10
2023-04-12T19:04:20.938Z,2.40
2023-04-12T19:06:47.568Z,2.50
2023-04-12T19:09:16.477Z,2.50
2023-04-12T19:11:43.168Z,2.60
2023-04-12T19:14:09.823Z,2.80
2023-04-12T19:16:36.875Z,2.03
2023-04-12T19:19:03.748Z,2.50
2023-04-12T19:21:31.563Z,1.85
2023-04-12T19:24:02.879Z,1.70
2023-04-12T19:26:32.077Z,1.92
2023-04-12T19:28:58.963Z,2.08
2023-04-12T19:31:26.166Z,2.00
2023-04-12T19:33:57.817Z,2.10
2023-04-12T19:36:24.901Z,1.95
2023-04-12T19:38:52.226Z,2.30
2023-04-12T19:41:20.423Z,2.30
2023-04-12T19:43:47.767Z,2.13
2023-04-12T19:46:14.679Z,1.63
2023-04-12T19:48:41.767Z,1.30
2023-04-12T19:51:11.100Z,1.23
2023-04-12T19:53:37.875Z,1.30
2023-04-12T19:56:05.806Z,1.05
2023-04-12T19:58:33.793Z,1.05
2023-04-12T20:01:04.781Z,1.25
2023-04-12T20:03:31.623Z,1.08
2023-04-12T20:05:59.472Z,1.10
2023-04-12T20:08:29.657Z,1.00
2023-04-12T20:10:56.417Z,1.60
2023-04-12T20:13:23.295Z,1.13
2023-04-12T20:15:51.290Z,1.08
2023-04-12T20:18:18.241Z,1.48
2023-04-12T20:20:49.793Z,0.90
2023-04-12T20:23:18.919Z,1.30
2023-04-12T20:25:49.049Z,1.30
2023-04-12T20:28:18.840Z,1.63
2023-04-12T20:30:48.224Z,0.80
2023-04-12T20:33:17.460Z,0.85
2023-04-12T20:35:47.160Z,1.20
2023-04-12T20:38:14.240Z,0.95
2023-04-12T20:40:43.150Z,1.15
2023-04-12T20:43:10.605Z,1.00
2023-04-12T20:45:38.121Z,0.90
2023-04-12T20:48:05.523Z,1.10
2023-04-12T20:50:33.136Z,0.70
2023-04-12T20:53:01.226Z,1.10
2023-04-12T20:55:34.170Z,0.90
2023-04-12T20:58:05.356Z,0.90
2023-04-12T21:00:34.015Z,1.05
2023-04-12T21:03:04.303Z,1.00
2023-04-12T21:05:33.931Z,0.88
2023-04-12T21:08:01.200Z,0.80
2023-04-12T21:10:28.332Z,1.10
2023-04-12T21:12:55.552Z,0.93
2023-04-12T21:15:22.678Z,1.20
2023-04-12T21:17:54.733Z,0.98
2023-04-12T21:20:26.714Z,0.85
2023-04-12T21:22:53.807Z,0.80
2023-04-12T21:25:21.657Z,0.73
2023-04-12T21:27:49.815Z,0.90
2023-04-12T21:30:17.556Z,0.80
2023-04-12T21:32:44.811Z,0.77
2023-04-12T21:35:16.639Z,0.77
2023-04-12T21:37:46.114Z,1.00
2023-04-12T21:40:13.362Z,0.70
2023-04-12T21:42:45.096Z,0.70
2023-04-12T21:45:14.880Z,0.82
2023-04-12T21:47:43.037Z,0.60
2023-04-12T21:50:12.928Z,0.80
2023-04-12T21:52:41.727Z,0.80
2023-04-12T21:55:08.602Z,0.82
2023-04-12T21:57:36.018Z,0.70
2023-04-12T22:00:05.458Z,0.70
2023-04-12T22:02:32.580Z,0.70
2023-04-12T22:04:59.873Z,0.65
2023-04-12T22:07:26.813Z,0.75
2023-04-12T22:09:58.279Z,0.75
2023-04-12T22:12:25.754Z,0.80
2023-04-12T22:14:57.866Z,0.90
2023-04-12T22:17:25.017Z,0.60
2023-04-12T22:19:56.652Z,0.90
2023-04-12T22:22:29.189Z,0.80
2023-04-12T22:24:56.738Z,0.60
2023-04-12T22:27:26.680Z,0.65
2023-04-12T22:29:53.810Z,0.63
2023-04-12T22:32:23.156Z,0.90
2023-04-12T22:34:58.045Z,0.60
2023-04-12T22:37:35.471Z,0.70
2023-04-12T22:40:02.605Z,0.60
2023-04-12T22:42:31.863Z,0.63
2023-04-12T22:44:58.614Z,0.65
2023-04-12T22:47:28.872Z,0.60
2023-04-12T22:50:01.475Z,0.77
2023-04-12T22:52:31.967Z,0.70
2023-04-12T22:54:59.221Z,0.98
2023-04-12T22:57:36.688Z,0.75
2023-04-12T23:00:07.679Z,0.70
2023-04-12T23:02:34.996Z,0.82
2023-04-12T23:05:04.671Z,0.68
2023-04-12T23:07:31.560Z,1.00
2023-04-12T23:09:58.293Z,0.77
2023-04-12T23:12:27.653Z,0.90
2023-04-12T23:14:55.776Z,0.60
2023-04-12T23:17:23.585Z,0.70
2023-04-12T23:19:50.620Z,0.47
2023-04-12T23:22:48.556Z,0.85
2023-04-12T23:25:24.394Z,0.68
2023-04-12T23:27:51.537Z,0.73
2023-04-12T23:30:19.030Z,0.80
2023-04-12T23:32:49.220Z,0.70
2023-04-12T23:35:16.261Z,0.90
2023-04-12T23:37:43.454Z,0.80
2023-04-12T23:40:14.698Z,0.88
2023-04-12T23:42:44.202Z,0.65
2023-04-12T23:45:16.070Z,0.88
2023-04-12T23:47:43.074Z,0.90
2023-04-12T23:50:10.733Z,0.80
2023-04-12T23:52:37.499Z,1.15
2023-04-12T23:55:04.793Z,0.70
2023-04-12T23:57:31.717Z,0.50
2023-04-12T23:59:58.528Z,0.50
